Time;durP1;ratioP1;P1;durP2;ratioP2;P2;SDS_P1;SDS_P2;PMS_P1;PMS_P2;Temp;Humidity;BMP_temperature;BMP_pressure;BME280_temperature;BME280_humidity;BME280_pressure;Samples;Min_cycle;Max_cycle;Signal;HPM_P1;HPM_P2
2021/10/05 00:01:09;;;;;;;14.23;5.65;;;21.40;99.90;;;;;;4921284;29;20039;-83
2021/10/05 00:03:36;;;;;;;11.18;5.00;;;21.40;99.90;;;;;;4938542;29;20059;-85
2021/10/05 00:06:02;;;;;;;12.65;5.78;;;21.40;99.90;;;;;;4920618;29;20138;-84
2021/10/05 00:08:27;;;;;;;20.48;5.50;;;21.40;99.90;;;;;;4920459;29;20577;-83
2021/10/05 00:10:53;;;;;;;12.57;6.10;;;21.30;99.90;;;;;;4921130;29;20122;-84
2021/10/05 00:13:19;;;;;;;11.57;5.72;;;21.40;99.90;;;;;;4938082;29;20035;-84
2021/10/05 00:15:44;;;;;;;13.55;6.15;;;21.30;99.90;;;;;;4938284;29;20047;-84
2021/10/05 00:18:10;;;;;;;12.57;5.75;;;21.30;99.90;;;;;;4938199;29;20071;-84
2021/10/05 00:20:36;;;;;;;12.25;5.85;;;21.30;99.90;;;;;;4921091;29;20135;-83
2021/10/05 00:23:01;;;;;;;12.55;6.10;;;21.30;99.90;;;;;;4938394;29;20074;-85
2021/10/05 00:25:28;;;;;;;12.40;6.20;;;21.30;99.90;;;;;;4938048;29;20488;-83
2021/10/05 00:27:53;;;;;;;15.60;6.45;;;21.20;99.90;;;;;;4938125;29;20092;-83
2021/10/05 00:30:19;;;;;;;13.23;5.45;;;21.20;99.90;;;;;;4937691;29;20055;-84
2021/10/05 00:32:45;;;;;;;13.55;6.22;;;21.20;99.90;;;;;;4937681;29;20043;-87
2021/10/05 00:35:11;;;;;;;14.50;6.97;;;21.20;99.90;;;;;;4937922;29;20501;-85
2021/10/05 00:37:37;;;;;;;13.85;6.55;;;21.20;99.90;;;;;;4920108;29;20085;-83
2021/10/05 00:40:04;;;;;;;15.75;6.88;;;21.20;99.90;;;;;;4937750;29;20502;-83
2021/10/05 00:42:30;;;;;;;14.23;6.85;;;21.20;99.90;;;;;;4937609;29;20032;-83
2021/10/05 00:44:55;;;;;;;11.48;6.95;;;21.20;99.90;;;;;;4937472;29;20371;-83
2021/10/05 00:47:21;;;;;;;13.20;6.45;;;21.10;99.90;;;;;;4937636;29;20047;-85
2021/10/05 00:49:49;;;;;;;11.20;6.53;;;21.10;99.90;;;;;;4937547;29;20045;-84
2021/10/05 00:52:17;;;;;;;19.92;7.13;;;21.10;99.90;;;;;;4937643;29;20095;-83
2021/10/05 00:54:44;;;;;;;14.63;6.85;;;21.10;99.90;;;;;;4920134;29;20039;-84
2021/10/05 00:57:11;;;;;;;13.63;6.80;;;21.10;99.90;;;;;;4937499;29;20534;-84
2021/10/05 00:59:38;;;;;;;20.10;7.82;;;21.00;99.90;;;;;;4920200;29;20051;-84
2021/10/05 01:02:10;;;;;;;17.75;7.15;;;21.00;99.90;;;;;;4920255;29;20036;-83
2021/10/05 01:04:35;;;;;;;19.65;8.30;;;21.00;99.90;;;;;;4937302;29;20035;-83
2021/10/05 01:07:05;;;;;;;12.05;7.80;;;21.00;99.90;;;;;;4936979;29;20047;-83
2021/10/05 01:09:32;;;;;;;17.73;7.93;;;21.00;99.90;;;;;;4937346;29;20114;-83
2021/10/05 01:11:58;;;;;;;16.10;8.27;;;21.00;99.90;;;;;;4937114;29;20039;-84
2021/10/05 01:14:24;;;;;;;17.33;7.43;;;21.00;99.90;;;;;;4937164;29;20055;-85
2021/10/05 01:16:51;;;;;;;15.82;8.13;;;21.00;99.90;;;;;;4936996;29;20110;-84
2021/10/05 01:19:17;;;;;;;20.92;8.75;;;21.00;99.90;;;;;;4936777;29;20047;-84
2021/10/05 01:21:43;;;;;;;22.60;7.88;;;21.00;99.90;;;;;;4919814;29;20063;-86
2021/10/05 01:24:18;;;;;;;17.10;8.38;;;21.00;99.90;;;;;;4936871;29;20063;-84
2021/10/05 01:26:44;;;;;;;14.38;7.95;;;21.00;99.90;;;;;;4919598;29;20028;-84
2021/10/05 01:29:14;;;;;;;14.32;7.95;;;21.00;99.90;;;;;;4919910;29;20043;-85
2021/10/05 01:31:42;;;;;;;15.80;8.15;;;21.00;99.90;;;;;;4936713;29;20028;-84
2021/10/05 01:34:08;;;;;;;23.67;7.65;;;21.10;99.90;;;;;;4936761;29;20047;-84
2021/10/05 01:36:34;;;;;;;15.48;8.43;;;21.10;99.90;;;;;;4936708;29;20556;-84
2021/10/05 01:39:02;;;;;;;18.48;8.85;;;21.10;99.90;;;;;;4936483;29;20040;-82
2021/10/05 01:41:28;;;;;;;18.10;8.35;;;21.10;99.90;;;;;;4935820;29;20042;-83
2021/10/05 01:43:54;;;;;;;23.50;7.93;;;21.20;99.90;;;;;;4935723;29;20393;-84
2021/10/05 01:46:20;;;;;;;14.60;7.72;;;21.20;99.90;;;;;;4935622;29;20031;-84
2021/10/05 01:48:46;;;;;;;17.55;8.60;;;21.20;99.90;;;;;;4935503;29;20490;-82
2021/10/05 01:51:12;;;;;;;24.02;8.15;;;21.20;99.90;;;;;;4936027;29;20434;-84
2021/10/05 01:53:39;;;;;;;14.38;7.43;;;21.10;99.90;;;;;;4919333;29;20450;-83
2021/10/05 01:56:06;;;;;;;20.88;8.32;;;21.10;99.90;;;;;;4936357;29;20367;-83
2021/10/05 01:58:32;;;;;;;14.23;7.70;;;21.10;99.90;;;;;;4936368;29;20023;-83
2021/10/05 02:00:59;;;;;;;14.85;7.70;;;21.10;99.90;;;;;;4919279;29;20042;-83
2021/10/05 02:03:24;;;;;;;15.60;7.90;;;21.10;99.90;;;;;;4936483;29;20103;-83
2021/10/05 02:05:50;;;;;;;12.68;6.40;;;21.20;99.90;;;;;;4919095;29;20516;-83
2021/10/05 02:08:16;;;;;;;14.23;7.10;;;21.20;99.90;;;;;;4935903;29;20130;-83
2021/10/05 02:10:42;;;;;;;8.23;6.20;;;21.20;99.90;;;;;;4936360;29;20025;-83
2021/10/05 02:13:09;;;;;;;11.50;5.65;;;21.20;99.90;;;;;;4935992;29;20127;-83
2021/10/05 02:15:35;;;;;;;8.32;5.15;;;21.30;99.90;;;;;;4936243;29;20031;-83
2021/10/05 02:18:05;;;;;;;13.32;5.65;;;21.30;99.90;;;;;;4919109;29;20483;-83
2021/10/05 02:20:32;;;;;;;7.60;4.05;;;21.40;99.90;;;;;;4936014;29;20466;-83
2021/10/05 02:22:58;;;;;;;5.13;4.07;;;21.50;99.90;;;;;;4935874;29;20036;-83
2021/10/05 02:25:25;;;;;;;4.45;4.00;;;21.60;99.90;;;;;;4936294;29;20023;-83
2021/10/05 02:27:51;;;;;;;6.35;4.30;;;21.70;99.90;;;;;;4936001;29;20040;-84
2021/10/05 02:30:17;;;;;;;8.85;4.88;;;21.70;99.90;;;;;;4935725;29;20118;-83
2021/10/05 02:32:44;;;;;;;8.02;4.60;;;21.80;99.90;;;;;;4935801;29;20096;-83
2021/10/05 02:35:10;;;;;;;7.80;5.00;;;21.80;99.90;;;;;;4935794;29;20055;-83
2021/10/05 02:37:37;;;;;;;6.13;4.55;;;21.80;99.90;;;;;;4935838;29;20071;-83
2021/10/05 02:40:06;;;;;;;8.43;4.75;;;21.80;99.90;;;;;;4935766;29;20110;-84
2021/10/05 02:42:33;;;;;;;8.60;4.88;;;21.80;99.90;;;;;;4935704;29;20030;-83
2021/10/05 02:44:59;;;;;;;11.23;4.90;;;21.80;99.90;;;;;;4936047;29;20040;-84
2021/10/05 02:47:25;;;;;;;11.15;5.15;;;21.80;99.90;;;;;;4936150;29;20091;-84
2021/10/05 02:49:51;;;;;;;9.13;5.53;;;21.80;99.90;;;;;;4935601;29;20024;-83
2021/10/05 02:52:19;;;;;;;12.30;6.03;;;21.80;99.90;;;;;;4935746;29;20036;-86
2021/10/05 02:54:48;;;;;;;11.98;5.38;;;21.80;99.90;;;;;;4935574;29;20475;-85
2021/10/05 02:57:16;;;;;;;10.45;6.32;;;21.80;99.90;;;;;;4935946;29;20036;-84
2021/10/05 02:59:42;;;;;;;9.23;6.10;;;21.80;99.90;;;;;;4935623;29;20105;-84
2021/10/05 03:02:07;;;;;;;10.95;5.80;;;21.70;99.90;;;;;;4922334;29;20039;-84
2021/10/05 03:04:33;;;;;;;8.38;6.03;;;21.60;99.90;;;;;;4939538;29;20102;-84
2021/10/05 03:06:59;;;;;;;11.68;5.55;;;21.50;99.90;;;;;;4939433;29;20114;-84
2021/10/05 03:09:25;;;;;;;9.05;5.55;;;21.40;99.90;;;;;;4939432;29;20078;-84
2021/10/05 03:11:51;;;;;;;8.75;6.03;;;21.30;99.90;;;;;;4922098;29;20040;-83
2021/10/05 03:14:16;;;;;;;12.10;5.78;;;21.30;99.90;;;;;;4939126;29;20167;-84
2021/10/05 03:16:42;;;;;;;10.23;6.00;;;21.20;99.90;;;;;;4922505;29;20126;-84
2021/10/05 03:19:08;;;;;;;8.98;5.80;;;21.20;99.90;;;;;;4939272;29;20040;-84
2021/10/05 03:21:34;;;;;;;11.02;6.00;;;21.10;99.90;;;;;;4939147;29;20198;-85
2021/10/05 03:24:00;;;;;;;9.85;6.15;;;21.10;99.90;;;;;;4939243;29;20036;-85
2021/10/05 03:26:25;;;;;;;10.82;6.15;;;21.00;99.90;;;;;;4922085;29;20035;-84
2021/10/05 03:28:51;;;;;;;12.30;6.40;;;21.00;99.90;;;;;;4938737;29;20054;-83
2021/10/05 03:31:17;;;;;;;9.63;6.20;;;21.00;99.90;;;;;;4939141;29;20028;-83
2021/10/05 03:33:44;;;;;;;15.45;7.78;;;20.90;99.90;;;;;;4938841;29;20055;-83
2021/10/05 03:36:11;;;;;;;13.80;7.05;;;20.90;99.90;;;;;;4921848;29;20110;-83
2021/10/05 03:38:37;;;;;;;14.38;7.10;;;20.90;99.90;;;;;;4938901;29;20036;-85
2021/10/05 03:41:04;;;;;;;14.05;7.80;;;20.80;99.90;;;;;;4921830;29;20036;-84
2021/10/05 03:43:30;;;;;;;16.42;8.50;;;20.80;99.90;;;;;;4921426;29;20044;-84
2021/10/05 03:45:56;;;;;;;13.07;7.47;;;20.80;99.90;;;;;;4938720;29;20039;-84
2021/10/05 03:48:22;;;;;;;10.88;7.10;;;20.80;99.90;;;;;;4938674;29;20050;-84
2021/10/05 03:50:48;;;;;;;17.23;8.05;;;20.80;99.90;;;;;;4921940;29;20035;-83
2021/10/05 03:53:17;;;;;;;11.07;7.25;;;20.80;99.90;;;;;;4938565;29;20473;-84
2021/10/05 03:55:52;;;;;;;23.23;8.98;;;20.80;99.90;;;;;;4921268;29;20031;-85
2021/10/05 03:58:19;;;;;;;14.75;8.00;;;20.80;99.90;;;;;;4938941;29;20390;-84
2021/10/05 04:00:46;;;;;;;14.38;8.05;;;20.70;99.90;;;;;;4938687;29;20517;-83
2021/10/05 04:03:12;;;;;;;13.90;8.23;;;20.70;99.90;;;;;;4938550;29;20028;-85
2021/10/05 04:05:37;;;;;;;15.18;8.10;;;20.70;99.90;;;;;;4938242;29;20466;-84
2021/10/05 04:08:03;;;;;;;16.02;8.77;;;20.70;99.90;;;;;;4938189;29;20036;-83
2021/10/05 04:10:29;;;;;;;13.52;8.20;;;20.70;99.90;;;;;;4938401;29;20035;-83
2021/10/05 04:12:56;;;;;;;15.57;8.80;;;20.60;99.90;;;;;;4937190;29;20083;-84
2021/10/05 04:15:22;;;;;;;14.27;8.13;;;20.60;99.90;;;;;;4938137;29;20036;-83
2021/10/05 04:17:47;;;;;;;19.70;9.63;;;20.60;99.90;;;;;;4938134;29;20047;-85
2021/10/05 04:20:13;;;;;;;21.15;9.40;;;20.60;99.90;;;;;;4937975;29;20039;-84
2021/10/05 04:22:39;;;;;;;12.63;8.60;;;20.60;99.90;;;;;;4938335;29;20106;-84
2021/10/05 04:25:06;;;;;;;13.27;8.52;;;20.50;99.90;;;;;;4937935;29;20167;-84
2021/10/05 04:27:35;;;;;;;17.13;7.68;;;20.60;99.90;;;;;;4920501;29;20043;-84
2021/10/05 04:30:01;;;;;;;18.65;9.32;;;20.50;99.90;;;;;;4921173;29;20028;-84
2021/10/05 04:32:27;;;;;;;18.60;9.30;;;20.60;99.90;;;;;;4937904;29;20063;-84
2021/10/05 04:34:53;;;;;;;14.25;8.63;;;20.60;99.90;;;;;;4938100;29;20039;-83
2021/10/05 04:37:19;;;;;;;20.30;9.60;;;20.60;99.90;;;;;;4937648;29;20036;-84
2021/10/05 04:39:45;;;;;;;19.17;9.57;;;20.60;99.90;;;;;;4937693;29;20039;-84
2021/10/05 04:42:10;;;;;;;22.90;8.88;;;20.60;99.90;;;;;;4920374;29;20122;-83
2021/10/05 04:44:37;;;;;;;20.45;8.23;;;20.60;99.90;;;;;;4937693;29;20036;-84
2021/10/05 04:47:03;;;;;;;22.15;10.10;;;20.60;99.90;;;;;;4937718;29;20051;-83
2021/10/05 04:49:29;;;;;;;22.05;9.00;;;20.60;99.90;;;;;;4937657;29;20047;-83
2021/10/05 04:51:54;;;;;;;17.48;7.93;;;20.60;99.90;;;;;;4920203;29;20032;-83
2021/10/05 04:54:20;;;;;;;17.55;8.38;;;20.60;99.90;;;;;;4937635;29;20083;-83
2021/10/05 04:56:46;;;;;;;19.85;8.40;;;20.60;99.90;;;;;;4937455;29;20032;-83
2021/10/05 04:59:11;;;;;;;19.08;9.70;;;20.70;99.90;;;;;;4937578;29;20040;-84
2021/10/05 05:01:37;;;;;;;18.92;8.85;;;20.60;99.90;;;;;;4937581;29;20039;-83
2021/10/05 05:04:03;;;;;;;17.80;8.23;;;20.70;99.90;;;;;;4937426;29;20028;-84
2021/10/05 05:06:29;;;;;;;17.35;8.90;;;20.60;99.90;;;;;;4920486;29;20028;-83
2021/10/05 05:08:54;;;;;;;21.85;8.75;;;20.60;99.90;;;;;;4937230;29;20044;-85
2021/10/05 05:11:20;;;;;;;19.92;8.98;;;20.60;99.90;;;;;;4937241;29;20032;-84
2021/10/05 05:13:46;;;;;;;23.75;9.13;;;20.60;99.90;;;;;;4920075;29;20032;-84
2021/10/05 05:16:12;;;;;;;20.92;8.65;;;20.60;99.90;;;;;;4919748;29;20031;-84
2021/10/05 05:18:38;;;;;;;20.23;9.15;;;20.60;99.90;;;;;;4920156;29;20042;-84
2021/10/05 05:21:04;;;;;;;24.27;8.65;;;20.60;99.90;;;;;;4919898;29;20505;-83
2021/10/05 05:23:29;;;;;;;21.63;8.82;;;20.60;99.90;;;;;;4936954;29;20087;-82
2021/10/05 05:25:55;;;;;;;20.25;9.50;;;20.60;99.90;;;;;;4936752;29;20042;-82
2021/10/05 05:28:21;;;;;;;25.42;8.32;;;20.60;99.90;;;;;;4936758;29;20455;-82
2021/10/05 05:30:46;;;;;;;21.05;10.00;;;20.60;99.90;;;;;;4936879;29;20024;-82
2021/10/05 05:33:12;;;;;;;20.42;9.43;;;20.60;99.90;;;;;;4936791;29;20058;-83
2021/10/05 05:35:38;;;;;;;16.80;8.63;;;20.50;99.90;;;;;;4936823;29;20115;-82
2021/10/05 05:38:04;;;;;;;21.55;9.82;;;20.50;99.90;;;;;;4936484;29;20031;-81
2021/10/05 05:40:30;;;;;;;22.63;10.20;;;20.50;99.90;;;;;;4936073;29;20032;-82
2021/10/05 05:42:55;;;;;;;23.75;10.07;;;20.50;99.90;;;;;;4918674;29;20557;-81
2021/10/05 05:45:21;;;;;;;29.90;9.93;;;20.50;99.90;;;;;;4935936;29;20059;-81
2021/10/05 05:47:47;;;;;;;23.08;10.35;;;20.50;99.90;;;;;;4935905;29;20433;-81
2021/10/05 05:50:12;;;;;;;22.95;10.55;;;20.50;99.90;;;;;;4935680;29;20513;-81
2021/10/05 05:52:38;;;;;;;26.92;10.55;;;20.60;99.90;;;;;;4935640;29;20043;-81
2021/10/05 05:55:05;;;;;;;20.92;10.25;;;20.80;99.90;;;;;;4935641;29;20047;-81
2021/10/05 05:57:30;;;;;;;22.00;10.05;;;20.80;99.90;;;;;;4935712;29;20040;-81
2021/10/05 05:59:58;;;;;;;19.80;9.85;;;20.90;99.90;;;;;;4935618;29;20028;-82
2021/10/05 06:02:24;;;;;;;33.40;11.02;;;20.90;99.90;;;;;;4918435;29;20047;-82
2021/10/05 06:04:50;;;;;;;24.02;10.23;;;21.00;99.90;;;;;;4935604;29;20028;-83
2021/10/05 06:07:15;;;;;;;22.67;11.10;;;20.90;99.90;;;;;;4935378;29;20035;-82
2021/10/05 06:09:41;;;;;;;22.98;11.35;;;20.70;99.90;;;;;;4935750;29;20378;-81
2021/10/05 06:12:10;;;;;;;24.60;11.18;;;20.50;99.90;;;;;;4936137;29;20509;-81
2021/10/05 06:14:36;;;;;;;26.42;11.90;;;20.30;99.90;;;;;;4936225;29;20034;-82
2021/10/05 06:17:04;;;;;;;19.02;11.48;;;20.10;99.90;;;;;;4936656;29;20036;-82
2021/10/05 06:19:29;;;;;;;33.70;12.73;;;20.10;99.90;;;;;;4936396;29;20032;-82
2021/10/05 06:21:55;;;;;;;23.17;11.18;;;20.00;99.90;;;;;;4935857;29;20032;-83
2021/10/05 06:24:21;;;;;;;30.52;12.65;;;20.00;99.90;;;;;;4936077;29;20035;-81
2021/10/05 06:26:47;;;;;;;30.08;12.40;;;20.00;99.90;;;;;;4936248;29;20107;-83
2021/10/05 06:29:13;;;;;;;34.60;13.43;;;20.00;99.90;;;;;;4936056;29;20091;-83
2021/10/05 06:31:38;;;;;;;27.73;12.45;;;20.10;99.90;;;;;;4919047;29;20159;-83
2021/10/05 06:34:04;;;;;;;25.63;12.57;;;20.20;99.90;;;;;;4935483;29;20410;-84
2021/10/05 06:36:30;;;;;;;24.77;11.65;;;20.30;99.90;;;;;;4935591;29;20032;-83
2021/10/05 06:38:55;;;;;;;19.42;11.57;;;20.40;99.90;;;;;;4935905;29;20411;-83
2021/10/05 06:41:22;;;;;;;27.17;11.13;;;20.60;99.90;;;;;;4935841;29;20043;-83
2021/10/05 06:43:48;;;;;;;23.13;10.85;;;20.70;99.90;;;;;;4936357;29;20024;-83
2021/10/05 06:46:14;;;;;;;18.70;9.98;;;20.80;99.90;;;;;;4936078;29;20446;-83
2021/10/05 06:48:39;;;;;;;20.90;11.00;;;20.90;99.90;;;;;;4935505;29;20402;-82
2021/10/05 06:51:06;;;;;;;21.92;11.02;;;20.90;99.90;;;;;;4936105;29;20024;-83
2021/10/05 06:53:32;;;;;;;30.27;11.00;;;20.90;99.90;;;;;;4935796;29;20165;-82
2021/10/05 06:55:57;;;;;;;20.67;10.90;;;21.00;99.90;;;;;;4935863;29;20031;-81
2021/10/05 06:58:23;;;;;;;25.42;11.02;;;21.20;99.90;;;;;;4918655;29;20050;-82
2021/10/05 07:00:49;;;;;;;31.05;11.27;;;21.30;99.90;;;;;;4935928;29;20107;-81
2021/10/05 07:03:15;;;;;;;25.48;11.30;;;21.50;99.90;;;;;;4918914;29;20044;-81
2021/10/05 07:05:41;;;;;;;20.38;10.52;;;21.70;99.90;;;;;;4935581;29;20043;-81
2021/10/05 07:08:07;;;;;;;25.80;11.25;;;21.70;99.90;;;;;;4935675;29;20050;-81
2021/10/05 07:10:35;;;;;;;28.42;10.75;;;21.70;99.90;;;;;;4935655;29;20028;-82
2021/10/05 07:13:01;;;;;;;20.58;11.05;;;21.80;99.90;;;;;;4935719;29;20114;-85
2021/10/05 07:15:27;;;;;;;19.35;10.15;;;21.80;99.90;;;;;;4935871;29;20545;-81
2021/10/05 07:17:54;;;;;;;22.20;10.27;;;21.90;99.90;;;;;;4935619;29;20036;-82
2021/10/05 07:20:20;;;;;;;21.88;10.15;;;21.80;99.90;;;;;;4918837;29;20405;-81
2021/10/05 07:22:46;;;;;;;31.25;10.80;;;21.70;99.90;;;;;;4935615;29;20024;-81
2021/10/05 07:25:11;;;;;;;25.17;11.20;;;21.40;99.90;;;;;;4935279;29;20035;-83
2021/10/05 07:27:37;;;;;;;31.73;10.73;;;21.30;99.90;;;;;;4935868;29;20039;-81
2021/10/05 07:30:07;;;;;;;30.88;10.55;;;21.30;99.90;;;;;;4935469;29;20114;-81
2021/10/05 07:32:34;;;;;;;16.17;9.00;;;21.70;99.90;;;;;;4918551;29;20059;-82
2021/10/05 07:35:00;;;;;;;20.02;8.48;;;22.00;99.90;;;;;;4935454;29;20032;-81
2021/10/05 07:37:26;;;;;;;15.90;8.65;;;22.30;99.90;;;;;;4935402;29;20394;-82
2021/10/05 07:39:52;;;;;;;14.60;7.72;;;22.60;99.90;;;;;;4935405;29;20035;-82
2021/10/05 07:42:20;;;;;;;23.08;8.77;;;22.70;99.90;;;;;;4935613;29;20035;-82
2021/10/05 07:44:48;;;;;;;21.52;10.38;;;22.30;99.90;;;;;;4935786;29;20083;-82
2021/10/05 07:47:14;;;;;;;18.02;9.90;;;21.80;99.90;;;;;;4937906;29;20036;-81
2021/10/05 07:49:40;;;;;;;23.08;10.55;;;21.60;99.90;;;;;;4938671;29;20039;-81
2021/10/05 07:52:06;;;;;;;19.85;10.82;;;21.40;99.90;;;;;;4938531;29;20032;-83
2021/10/05 07:54:31;;;;;;;20.30;10.98;;;21.30;99.90;;;;;;4938676;29;20032;-82
2021/10/05 07:56:57;;;;;;;24.45;10.45;;;21.20;99.90;;;;;;4938903;29;20038;-81
2021/10/05 07:59:23;;;;;;;25.70;10.05;;;21.30;99.90;;;;;;4938949;29;20055;-81
2021/10/05 08:01:50;;;;;;;22.08;10.65;;;21.40;99.90;;;;;;4938476;29;20055;-81
2021/10/05 08:04:16;;;;;;;20.13;10.90;;;21.60;99.90;;;;;;4938640;29;20352;-80
2021/10/05 08:06:43;;;;;;;20.13;10.18;;;22.00;99.90;;;;;;4938569;29;20055;-81
2021/10/05 08:09:09;;;;;;;23.15;9.77;;;22.10;99.90;;;;;;4938155;29;20040;-77
2021/10/05 08:11:35;;;;;;;26.92;10.20;;;21.90;99.90;;;;;;4938183;29;20031;-80
2021/10/05 08:14:00;;;;;;;29.92;11.23;;;21.70;99.90;;;;;;4938236;29;20099;-80
2021/10/05 08:16:32;;;;;;;20.88;10.77;;;21.60;99.90;;;;;;4938441;29;20467;-82
2021/10/05 08:18:59;;;;;;;25.55;11.35;;;21.50;99.90;;;;;;4921400;29;20123;-81
2021/10/05 08:21:25;;;;;;;26.70;12.07;;;21.30;99.90;;;;;;4938896;29;20043;-83
2021/10/05 08:23:52;;;;;;;28.27;10.80;;;21.20;99.90;;;;;;4937935;29;20035;-81
2021/10/05 08:26:19;;;;;;;23.15;11.55;;;21.20;99.90;;;;;;4938100;29;20036;-82
2021/10/05 08:28:45;;;;;;;24.02;10.98;;;21.20;99.90;;;;;;4938055;29;20047;-83
2021/10/05 08:31:10;;;;;;;30.90;10.63;;;21.20;99.90;;;;;;4938180;29;20163;-82
2021/10/05 08:33:36;;;;;;;24.90;11.63;;;21.30;99.90;;;;;;4938190;29;20056;-82
2021/10/05 08:36:02;;;;;;;26.05;11.18;;;21.40;99.90;;;;;;4937546;29;20490;-82
2021/10/05 08:38:28;;;;;;;21.60;10.25;;;21.50;99.90;;;;;;4938392;29;20027;-82
2021/10/05 08:40:55;;;;;;;24.80;10.07;;;21.60;99.90;;;;;;4937947;29;20106;-82
2021/10/05 08:43:23;;;;;;;25.90;12.48;;;21.50;99.90;;;;;;4937806;29;20036;-81
2021/10/05 08:45:49;;;;;;;29.38;11.82;;;21.40;99.90;;;;;;4937834;29;20075;-82
2021/10/05 08:48:15;;;;;;;32.40;10.88;;;21.40;99.90;;;;;;4938046;29;20043;-83
2021/10/05 08:50:42;;;;;;;21.13;10.63;;;21.30;99.90;;;;;;4937446;29;20031;-82
2021/10/05 08:53:09;;;;;;;21.42;11.15;;;21.30;99.90;;;;;;4937472;29;20035;-82
2021/10/05 08:55:35;;;;;;;31.92;11.95;;;21.30;99.90;;;;;;4937833;29;20027;-82
2021/10/05 08:58:01;;;;;;;29.80;11.05;;;21.30;99.90;;;;;;4937209;29;20078;-82
2021/10/05 09:00:31;;;;;;;28.90;11.38;;;21.40;99.90;;;;;;4920249;29;20149;-82
2021/10/05 09:02:57;;;;;;;21.95;10.40;;;21.50;99.90;;;;;;4937947;29;20031;-83
2021/10/05 09:05:23;;;;;;;25.30;10.00;;;21.60;99.90;;;;;;4937403;29;20542;-84
2021/10/05 09:07:51;;;;;;;26.33;9.75;;;22.00;99.90;;;;;;4937238;29;20070;-84
2021/10/05 09:10:20;;;;;;;25.77;9.75;;;22.60;99.90;;;;;;4937637;29;20036;-84
2021/10/05 09:12:47;;;;;;;31.48;10.60;;;23.20;99.90;;;;;;4937756;29;20035;-84
2021/10/05 09:15:15;;;;;;;22.42;8.60;;;23.90;99.90;;;;;;4937735;29;20039;-83
2021/10/05 09:17:41;;;;;;;25.08;9.02;;;24.80;99.90;;;;;;4937362;29;20028;-83
2021/10/05 09:20:23;;;;;;;19.67;9.45;;;25.60;99.90;;;;;;4937198;29;20179;-83
2021/10/05 09:23:13;;;;;;;23.83;8.57;;;26.00;99.90;;;;;;4937628;29;20036;-85
2021/10/05 09:25:42;;;;;;;24.35;9.38;;;26.00;99.90;;;;;;4920087;29;20493;-82
2021/10/05 09:28:17;;;;;;;20.52;9.20;;;25.60;99.90;;;;;;4936968;29;20047;-81
2021/10/05 09:30:43;;;;;;;25.92;9.15;;;25.40;99.90;;;;;;4937023;29;20039;-81
2021/10/05 09:33:09;;;;;;;42.20;10.23;;;25.10;99.90;;;;;;4937185;29;20114;-81
2021/10/05 09:35:47;;;;;;;24.20;8.90;;;24.60;99.90;;;;;;4936549;29;20095;-82
2021/10/05 09:38:18;;;;;;;23.42;9.52;;;24.20;99.90;;;;;;4919929;29;20546;-82
2021/10/05 09:40:56;;;;;;;21.40;9.68;;;24.00;99.90;;;;;;4936208;29;20043;-82
2021/10/05 09:43:22;;;;;;;31.33;10.63;;;23.80;99.90;;;;;;4937436;29;20032;-82
2021/10/05 09:45:49;;;;;;;30.67;10.15;;;23.60;99.90;;;;;;4936875;29;20035;-80
2021/10/05 09:48:15;;;;;;;33.47;10.45;;;23.40;99.90;;;;;;4936668;29;20622;-81
2021/10/05 09:50:42;;;;;;;30.90;9.98;;;23.20;99.90;;;;;;4936860;29;20059;-81
2021/10/05 09:53:10;;;;;;;30.48;10.30;;;23.10;99.90;;;;;;4937674;29;20193;-82
2021/10/05 09:55:41;;;;;;;44.63;11.02;;;23.00;99.90;;;;;;4936309;29;20035;-82
2021/10/05 09:58:08;;;;;;;29.15;10.07;;;22.90;99.90;;;;;;4937022;29;20039;-82
2021/10/05 10:00:43;;;;;;;33.28;10.50;;;22.80;99.90;;;;;;4935063;29;20119;-81
2021/10/05 10:03:09;;;;;;;33.90;9.93;;;22.90;99.90;;;;;;4936023;29;20032;-80
2021/10/05 10:05:38;;;;;;;22.13;8.90;;;22.90;99.90;;;;;;4935052;29;20047;-81
2021/10/05 10:08:04;;;;;;;17.33;7.00;;;22.90;99.90;;;;;;4935046;29;20043;-80
2021/10/05 10:10:33;;;;;;;24.30;6.57;;;23.00;99.90;;;;;;4934463;29;20167;-81
2021/10/05 10:13:00;;;;;;;16.27;5.43;;;23.00;99.90;;;;;;4935299;29;20217;-82
2021/10/05 10:15:29;;;;;;;21.83;4.88;;;23.20;99.90;;;;;;4935652;29;20047;-81
2021/10/05 10:18:07;;;;;;;20.27;4.05;;;23.20;99.90;;;;;;4936329;29;20517;-81
2021/10/05 10:20:34;;;;;;;17.00;4.30;;;23.30;99.90;;;;;;4936061;29;20095;-82
2021/10/05 10:23:00;;;;;;;14.43;3.72;;;23.40;99.90;;;;;;4935950;29;20059;-83
2021/10/05 10:25:30;;;;;;;14.50;3.67;;;23.40;99.90;;;;;;4934506;29;20103;-82
2021/10/05 10:27:58;;;;;;;16.65;3.55;;;23.50;99.90;;;;;;4935603;29;20505;-80
2021/10/05 10:30:28;;;;;;;13.07;3.88;;;23.60;99.90;;;;;;4935776;29;20494;-82
2021/10/05 10:33:02;;;;;;;13.38;3.45;;;23.70;99.90;;;;;;4935597;29;20051;-82
2021/10/05 10:35:28;;;;;;;14.35;4.03;;;23.70;99.90;;;;;;4936103;29;20040;-83
2021/10/05 10:37:54;;;;;;;17.90;3.45;;;23.70;99.90;;;;;;4918981;29;20095;-83
2021/10/05 10:40:33;;;;;;;13.25;3.30;;;23.70;99.90;;;;;;4936742;29;20035;-82
2021/10/05 10:43:13;;;;;;;17.38;3.90;;;23.70;99.90;;;;;;4935929;29;20066;-83
2021/10/05 10:45:44;;;;;;;14.82;3.78;;;23.80;99.90;;;;;;4918451;29;20458;-81
2021/10/05 10:48:10;;;;;;;14.73;3.97;;;23.80;99.90;;;;;;4936165;29;20047;-83
2021/10/05 10:50:37;;;;;;;12.60;3.25;;;23.80;99.90;;;;;;4935673;29;20394;-83
2021/10/05 10:53:07;;;;;;;26.25;6.80;;;23.90;99.90;;;;;;4936228;29;20072;-83
2021/10/05 10:55:35;;;;;;;10.13;3.05;;;24.00;99.90;;;;;;4935873;29;20035;-82
2021/10/05 10:58:01;;;;;;;11.98;3.35;;;24.00;99.90;;;;;;4935085;29;20398;-81
2021/10/05 11:00:32;;;;;;;16.42;3.42;;;24.00;99.90;;;;;;4934638;29;20065;-80
2021/10/05 11:03:03;;;;;;;16.73;3.33;;;23.90;99.90;;;;;;4935278;29;20443;-81
2021/10/05 11:05:34;;;;;;;12.18;3.17;;;23.90;99.90;;;;;;4935344;29;20046;-81
2021/10/05 11:08:08;;;;;;;10.93;3.50;;;24.00;99.90;;;;;;4935389;29;20110;-81
2021/10/05 11:10:34;;;;;;;10.98;2.80;;;24.00;99.90;;;;;;4935654;29;20032;-81
2021/10/05 11:13:04;;;;;;;14.02;3.38;;;24.10;99.90;;;;;;4935727;29;20023;-80
2021/10/05 11:15:39;;;;;;;18.02;3.22;;;24.10;99.90;;;;;;4935033;29;20031;-81
2021/10/05 11:18:07;;;;;;;14.20;3.75;;;24.10;99.90;;;;;;4935455;29;20474;-82
2021/10/05 11:20:36;;;;;;;14.93;3.10;;;24.10;99.90;;;;;;4935576;29;20043;-81
2021/10/05 11:23:03;;;;;;;9.10;3.03;;;24.20;99.90;;;;;;4939503;29;20035;-81
2021/10/05 11:25:30;;;;;;;12.25;4.15;;;24.30;99.90;;;;;;4939837;29;20163;-80
2021/10/05 11:27:55;;;;;;;11.93;3.00;;;24.50;99.90;;;;;;4939508;29;20039;-80
2021/10/05 11:30:21;;;;;;;13.90;3.13;;;24.70;99.90;;;;;;4939598;29;20520;-81
2021/10/05 11:32:50;;;;;;;9.38;3.13;;;24.80;99.90;;;;;;4939435;29;20051;-81
2021/10/05 11:35:17;;;;;;;10.02;2.80;;;24.90;99.90;;;;;;4939721;29;20483;-81
2021/10/05 11:37:42;;;;;;;14.30;3.70;;;24.80;99.90;;;;;;4939379;29;20087;-81
2021/10/05 11:40:09;;;;;;;9.63;3.05;;;24.70;99.90;;;;;;4939705;29;20031;-80
2021/10/05 11:42:34;;;;;;;11.48;3.10;;;24.70;99.90;;;;;;4938821;29;20553;-80
2021/10/05 11:45:03;;;;;;;8.55;3.08;;;24.80;99.90;;;;;;4939325;29;20067;-80
2021/10/05 11:47:30;;;;;;;18.40;3.17;;;24.90;99.90;;;;;;4939054;29;20090;-81
2021/10/05 11:50:05;;;;;;;11.15;3.45;;;24.90;99.90;;;;;;4939221;29;20119;-80
2021/10/05 11:52:39;;;;;;;10.43;2.90;;;24.80;99.90;;;;;;4938737;29;20102;-81
2021/10/05 11:55:05;;;;;;;13.40;3.30;;;24.70;99.90;;;;;;4937962;29;20039;-81
2021/10/05 11:57:34;;;;;;;22.25;3.08;;;24.60;99.90;;;;;;4939561;29;20544;-81
2021/10/05 12:00:10;;;;;;;16.58;4.10;;;24.60;99.90;;;;;;4938999;29;20034;-81
2021/10/05 12:02:42;;;;;;;11.55;3.25;;;24.80;99.90;;;;;;4938742;29;20095;-81
2021/10/05 12:05:24;;;;;;;18.02;2.90;;;25.10;99.90;;;;;;4938908;29;20087;-82
2021/10/05 12:07:50;;;;;;;10.45;2.67;;;25.30;99.90;;;;;;4921424;29;20047;-80
2021/10/05 12:10:17;;;;;;;15.93;2.53;;;25.20;99.90;;;;;;4938122;29;20039;-80
2021/10/05 12:12:43;;;;;;;9.57;2.22;;;25.00;99.90;;;;;;4921118;29;20442;-81
2021/10/05 12:15:15;;;;;;;15.63;3.60;;;25.10;99.90;;;;;;4937542;29;20115;-81
2021/10/05 12:17:42;;;;;;;14.48;2.50;;;25.00;99.90;;;;;;4937573;29;20485;-80
2021/10/05 12:20:12;;;;;;;15.05;2.80;;;25.10;99.90;;;;;;4937220;29;20490;-81
2021/10/05 12:22:42;;;;;;;11.52;2.65;;;25.30;99.90;;;;;;4920498;29;20066;-81
2021/10/05 12:25:24;;;;;;;12.77;2.80;;;25.40;99.90;;;;;;4920627;29;20040;-82
2021/10/05 12:27:52;;;;;;;15.98;2.60;;;25.40;99.90;;;;;;4920414;29;20367;-81
2021/10/05 12:30:23;;;;;;;9.43;2.33;;;25.60;99.90;;;;;;4937733;29;20043;-81
2021/10/05 12:32:54;;;;;;;11.55;2.60;;;25.70;99.90;;;;;;4936775;29;20426;-82
2021/10/05 12:35:21;;;;;;;14.50;2.53;;;25.70;99.90;;;;;;4937958;29;20036;-82